AZU2721 SBLO-SBCT
Flight info
| Callsign | AZU2721 |
|---|---|
| Flight time | 0h 47m |
| Altitude | 13000 |
| Route | UKDUN W48 GEGOB |
| Aircraft | AT76/M-SDFGIRY/S |
Departure
| Time | 2026-04-20 23:39 |
|---|---|
| Airport | Governor José Richa Airport (SBLO) |
Arrival
| Time | 2026-04-21 00:27 |
|---|---|
| Airport | Curitiba-Afonso Pena International Airport (SBCT) |
| Time | Latitude | Longitude | Altitude | Speed | Heading |
|---|---|---|---|---|---|
| 2026-04-20 23:05 | -23.32868 | -51.13919 | 1892 ft | 0 kts | 64° |
| 2026-04-20 23:30 | -23.32874 | -51.13934 | 1884 ft | 2 kts | 95° |
| 2026-04-20 23:30 | -23.32868 | -51.13947 | 1890 ft | 0 kts | 156° |
| 2026-04-20 23:35 | -23.32904 | -51.13930 | 1884 ft | 6 kts | 156° |
| 2026-04-20 23:35 | -23.32941 | -51.13921 | 1891 ft | 3 kts | 201° |
| 2026-04-20 23:36 | -23.32962 | -51.13935 | 1883 ft | 0 kts | 211° |
| 2026-04-20 23:36 | -23.32970 | -51.13939 | 1886 ft | 4 kts | 209° |
| 2026-04-20 23:37 | -23.33006 | -51.13955 | 1890 ft | 7 kts | 201° |
| 2026-04-20 23:37 | -23.33044 | -51.13946 | 1885 ft | 6 kts | 130° |
| 2026-04-20 23:37 | -23.33049 | -51.13935 | 1884 ft | 0 kts | 112° |
| 2026-04-20 23:38 | -23.33050 | -51.13933 | 1885 ft | 2 kts | 112° |
| 2026-04-20 23:38 | -23.33116 | -51.13741 | 1886 ft | 60 kts | 110° |
| 2026-04-20 23:38 | -23.33334 | -51.13101 | 1869 ft | 119 kts | 110° |
| 2026-04-20 23:39 | -23.33641 | -51.12152 | 2123 ft | 137 kts | 109° |
| 2026-04-20 23:39 | -23.33910 | -51.11050 | 2340 ft | 164 kts | 94° |
| 2026-04-20 23:39 | -23.33781 | -51.09830 | 2788 ft | 162 kts | 86° |
| 2026-04-20 23:39 | -23.33789 | -51.08519 | 2977 ft | 180 kts | 95° |
| 2026-04-20 23:40 | -23.33943 | -51.07302 | 3816 ft | 163 kts | 96° |
| 2026-04-20 23:40 | -23.33962 | -51.06025 | 4234 ft | 168 kts | 83° |
| 2026-04-20 23:40 | -23.33496 | -51.04935 | 4936 ft | 164 kts | 42° |
| 2026-04-20 23:40 | -23.32392 | -51.04412 | 5123 ft | 184 kts | 15° |
| 2026-04-20 23:41 | -23.31460 | -51.03722 | 5512 ft | 169 kts | 64° |
| 2026-04-20 23:41 | -23.31173 | -51.02504 | 6006 ft | 162 kts | 93° |
| 2026-04-20 23:41 | -23.31321 | -51.01333 | 6647 ft | 159 kts | 99° |
| 2026-04-20 23:41 | -23.31591 | -51.00128 | 6901 ft | 170 kts | 114° |
| 2026-04-20 23:42 | -23.32229 | -50.99023 | 7305 ft | 173 kts | 126° |
| 2026-04-20 23:42 | -23.32956 | -50.98005 | 7726 ft | 174 kts | 134° |
| 2026-04-20 23:42 | -23.33898 | -50.97132 | 8038 ft | 180 kts | 139° |
| 2026-04-20 23:42 | -23.34945 | -50.96434 | 8336 ft | 181 kts | 161° |
| 2026-04-20 23:43 | -23.36247 | -50.96248 | 8477 ft | 194 kts | 177° |
| 2026-04-20 23:43 | -23.37559 | -50.96420 | 8861 ft | 190 kts | 197° |
| 2026-04-20 23:43 | -23.38783 | -50.96956 | 9212 ft | 187 kts | 201° |
| 2026-04-20 23:43 | -23.39988 | -50.97507 | 9518 ft | 187 kts | 201° |
| 2026-04-20 23:44 | -23.41224 | -50.98050 | 9727 ft | 196 kts | 194° |
| 2026-04-20 23:44 | -23.42526 | -50.98432 | 9970 ft | 195 kts | 194° |
| 2026-04-20 23:44 | -23.43859 | -50.98700 | 10238 ft | 195 kts | 181° |
| 2026-04-20 23:44 | -23.45185 | -50.98514 | 10477 ft | 192 kts | 157° |
| 2026-04-20 23:45 | -23.46393 | -50.97905 | 10735 ft | 191 kts | 149° |
| 2026-04-20 23:45 | -23.47534 | -50.97154 | 10995 ft | 192 kts | 144° |
| 2026-04-20 23:45 | -23.48630 | -50.96327 | 11269 ft | 192 kts | 142° |
| 2026-04-20 23:45 | -23.49705 | -50.95462 | 11546 ft | 192 kts | 141° |
| 2026-04-20 23:46 | -23.50776 | -50.94588 | 11829 ft | 192 kts | 141° |
| 2026-04-20 23:46 | -23.51849 | -50.93712 | 12106 ft | 193 kts | 141° |
| 2026-04-20 23:46 | -23.52922 | -50.92835 | 12385 ft | 193 kts | 141° |
| 2026-04-20 23:46 | -23.54000 | -50.91959 | 12659 ft | 193 kts | 141° |
| 2026-04-20 23:47 | -23.55077 | -50.91086 | 12937 ft | 193 kts | 141° |
| 2026-04-20 23:47 | -23.56156 | -50.90208 | 13220 ft | 194 kts | 141° |
| 2026-04-20 23:47 | -23.57239 | -50.89331 | 13500 ft | 194 kts | 141° |
| 2026-04-20 23:47 | -23.58332 | -50.88448 | 13667 ft | 201 kts | 141° |
| 2026-04-20 23:48 | -23.59481 | -50.87521 | 13767 ft | 209 kts | 141° |
| 2026-04-20 23:48 | -23.60662 | -50.86565 | 13911 ft | 213 kts | 141° |
| 2026-04-20 23:48 | -23.61864 | -50.85591 | 14030 ft | 217 kts | 141° |
| 2026-04-20 23:48 | -23.63090 | -50.84598 | 14147 ft | 221 kts | 141° |
| 2026-04-20 23:49 | -23.64329 | -50.83592 | 14273 ft | 223 kts | 141° |
| 2026-04-20 23:49 | -23.65576 | -50.82579 | 14393 ft | 226 kts | 142° |
| 2026-04-20 23:49 | -23.66857 | -50.81539 | 14386 ft | 233 kts | 142° |
| 2026-04-20 23:49 | -23.68175 | -50.80470 | 14386 ft | 239 kts | 142° |
| 2026-04-20 23:50 | -23.69518 | -50.79379 | 14412 ft | 242 kts | 142° |
| 2026-04-20 23:50 | -23.70876 | -50.78276 | 14427 ft | 245 kts | 142° |
| 2026-04-20 23:50 | -23.72246 | -50.77163 | 14445 ft | 246 kts | 142° |
| 2026-04-20 23:50 | -23.73603 | -50.76059 | 14478 ft | 247 kts | 142° |
| 2026-04-20 23:51 | -23.74984 | -50.74937 | 14518 ft | 247 kts | 142° |
| 2026-04-20 23:51 | -23.76364 | -50.73815 | 14545 ft | 247 kts | 142° |
| 2026-04-20 23:51 | -23.77743 | -50.72692 | 14579 ft | 248 kts | 142° |
| 2026-04-20 23:51 | -23.79125 | -50.71567 | 14602 ft | 248 kts | 142° |
| 2026-04-20 23:52 | -23.80512 | -50.70438 | 14605 ft | 249 kts | 142° |
| 2026-04-20 23:52 | -23.81904 | -50.69306 | 14605 ft | 250 kts | 142° |
| 2026-04-20 23:52 | -23.83297 | -50.68171 | 14609 ft | 250 kts | 142° |
| 2026-04-20 23:52 | -23.84696 | -50.67031 | 14610 ft | 251 kts | 141° |
| 2026-04-20 23:53 | -23.86080 | -50.65862 | 14607 ft | 252 kts | 140° |
| 2026-04-20 23:53 | -23.87448 | -50.64671 | 14605 ft | 251 kts | 140° |
| 2026-04-20 23:53 | -23.88813 | -50.63477 | 14611 ft | 251 kts | 140° |
| 2026-04-20 23:53 | -23.90179 | -50.62282 | 14606 ft | 251 kts | 140° |
| 2026-04-20 23:54 | -23.91544 | -50.61086 | 14615 ft | 251 kts | 140° |
| 2026-04-20 23:54 | -23.92909 | -50.59888 | 14613 ft | 252 kts | 140° |
| 2026-04-20 23:54 | -23.94275 | -50.58690 | 14611 ft | 252 kts | 140° |
| 2026-04-20 23:54 | -23.95643 | -50.57491 | 14611 ft | 252 kts | 140° |
| 2026-04-20 23:55 | -23.97009 | -50.56289 | 14610 ft | 252 kts | 140° |
| 2026-04-20 23:55 | -23.98376 | -50.55089 | 14612 ft | 252 kts | 140° |
| 2026-04-20 23:55 | -23.99744 | -50.53888 | 14613 ft | 252 kts | 140° |
| 2026-04-20 23:55 | -24.01114 | -50.52685 | 14615 ft | 252 kts | 140° |
| 2026-04-20 23:56 | -24.02482 | -50.51482 | 14616 ft | 253 kts | 140° |
| 2026-04-20 23:56 | -24.03852 | -50.50278 | 14615 ft | 253 kts | 140° |
| 2026-04-20 23:56 | -24.05222 | -50.49075 | 14613 ft | 253 kts | 140° |
| 2026-04-20 23:56 | -24.06591 | -50.47869 | 14617 ft | 253 kts | 140° |
| 2026-04-20 23:57 | -24.07962 | -50.46662 | 14614 ft | 253 kts | 140° |
| 2026-04-20 23:57 | -24.09332 | -50.45457 | 14617 ft | 253 kts | 140° |
| 2026-04-20 23:57 | -24.10703 | -50.44250 | 14616 ft | 253 kts | 140° |
| 2026-04-20 23:57 | -24.12074 | -50.43043 | 14618 ft | 253 kts | 140° |
| 2026-04-20 23:58 | -24.13447 | -50.41834 | 14625 ft | 253 kts | 140° |
| 2026-04-20 23:58 | -24.14819 | -50.40625 | 14624 ft | 253 kts | 140° |
| 2026-04-20 23:58 | -24.16191 | -50.39420 | 14625 ft | 253 kts | 140° |
| 2026-04-20 23:58 | -24.17565 | -50.38215 | 14624 ft | 253 kts | 141° |
| 2026-04-20 23:59 | -24.18936 | -50.37013 | 14622 ft | 252 kts | 141° |
| 2026-04-20 23:59 | -24.20319 | -50.35828 | 14623 ft | 252 kts | 141° |
| 2026-04-20 23:59 | -24.21238 | -50.35048 | 14626 ft | 252 kts | 142° |
| 2026-04-20 23:59 | -24.22628 | -50.33873 | 14628 ft | 252 kts | 142° |
| 2026-04-21 00:00 | -24.24019 | -50.32700 | 14631 ft | 252 kts | 142° |
| 2026-04-21 00:00 | -24.25879 | -50.31127 | 14631 ft | 252 kts | 142° |
| 2026-04-21 00:00 | -24.26801 | -50.30351 | 14631 ft | 252 kts | 142° |
| 2026-04-21 00:00 | -24.28190 | -50.29176 | 14633 ft | 252 kts | 142° |
| 2026-04-21 00:01 | -24.29580 | -50.28000 | 14636 ft | 253 kts | 142° |
| 2026-04-21 00:01 | -24.30972 | -50.26824 | 14633 ft | 253 kts | 141° |
| 2026-04-21 00:01 | -24.32366 | -50.25647 | 14634 ft | 253 kts | 141° |
| 2026-04-21 00:01 | -24.33755 | -50.24476 | 14633 ft | 250 kts | 141° |
| 2026-04-21 00:02 | -24.35129 | -50.23307 | 14637 ft | 251 kts | 141° |
| 2026-04-21 00:02 | -24.36511 | -50.22137 | 14636 ft | 251 kts | 141° |
| 2026-04-21 00:02 | -24.37896 | -50.20969 | 14644 ft | 251 kts | 142° |
| 2026-04-21 00:02 | -24.39280 | -50.19794 | 14644 ft | 252 kts | 141° |
| 2026-04-21 00:03 | -24.40668 | -50.18618 | 14645 ft | 252 kts | 141° |
| 2026-04-21 00:03 | -24.42055 | -50.17443 | 14647 ft | 252 kts | 141° |
| 2026-04-21 00:03 | -24.43444 | -50.16271 | 14647 ft | 252 kts | 141° |
| 2026-04-21 00:03 | -24.44828 | -50.15092 | 14654 ft | 252 kts | 141° |
| 2026-04-21 00:04 | -24.46216 | -50.13917 | 14655 ft | 252 kts | 141° |
| 2026-04-21 00:04 | -24.47600 | -50.12741 | 14652 ft | 251 kts | 141° |
| 2026-04-21 00:04 | -24.48981 | -50.11564 | 14655 ft | 251 kts | 141° |
| 2026-04-21 00:04 | -24.50367 | -50.10390 | 14657 ft | 252 kts | 141° |
| 2026-04-21 00:05 | -24.51757 | -50.09214 | 14654 ft | 252 kts | 142° |
| 2026-04-21 00:05 | -24.53144 | -50.08032 | 14656 ft | 252 kts | 142° |
| 2026-04-21 00:05 | -24.54536 | -50.06851 | 14655 ft | 253 kts | 141° |
| 2026-04-21 00:05 | -24.55927 | -50.05667 | 14658 ft | 253 kts | 141° |
| 2026-04-21 00:06 | -24.57322 | -50.04486 | 14659 ft | 253 kts | 141° |
| 2026-04-21 00:06 | -24.58693 | -50.03317 | 14659 ft | 253 kts | 141° |
| 2026-04-21 00:06 | -24.60085 | -50.02136 | 14659 ft | 253 kts | 141° |
| 2026-04-21 00:06 | -24.61475 | -50.00952 | 14661 ft | 253 kts | 141° |
| 2026-04-21 00:07 | -24.62863 | -49.99766 | 14660 ft | 253 kts | 142° |
| 2026-04-21 00:07 | -24.64256 | -49.98584 | 14661 ft | 253 kts | 141° |
| 2026-04-21 00:07 | -24.65648 | -49.97400 | 14659 ft | 253 kts | 141° |
| 2026-04-21 00:07 | -24.67038 | -49.96213 | 14662 ft | 253 kts | 142° |
| 2026-04-21 00:08 | -24.68430 | -49.95027 | 14656 ft | 253 kts | 142° |
| 2026-04-21 00:08 | -24.69823 | -49.93842 | 14657 ft | 253 kts | 142° |
| 2026-04-21 00:08 | -24.71215 | -49.92655 | 14656 ft | 253 kts | 141° |
| 2026-04-21 00:08 | -24.72606 | -49.91467 | 14657 ft | 253 kts | 142° |
| 2026-04-21 00:09 | -24.73996 | -49.90281 | 14660 ft | 253 kts | 141° |
| 2026-04-21 00:09 | -24.75389 | -49.89091 | 14660 ft | 253 kts | 142° |
| 2026-04-21 00:09 | -24.76780 | -49.87904 | 14659 ft | 253 kts | 142° |
| 2026-04-21 00:09 | -24.78174 | -49.86717 | 14660 ft | 253 kts | 142° |
| 2026-04-21 00:10 | -24.79565 | -49.85527 | 14660 ft | 253 kts | 142° |
| 2026-04-21 00:10 | -24.80957 | -49.84338 | 14659 ft | 253 kts | 142° |
| 2026-04-21 00:10 | -24.82349 | -49.83149 | 14661 ft | 253 kts | 142° |
| 2026-04-21 00:10 | -24.83744 | -49.81961 | 14657 ft | 253 kts | 142° |
| 2026-04-21 00:11 | -24.85132 | -49.80770 | 14658 ft | 253 kts | 142° |
| 2026-04-21 00:11 | -24.86525 | -49.79580 | 14656 ft | 253 kts | 141° |
| 2026-04-21 00:11 | -24.87915 | -49.78389 | 14657 ft | 253 kts | 141° |
| 2026-04-21 00:11 | -24.89303 | -49.77199 | 14657 ft | 253 kts | 141° |
| 2026-04-21 00:12 | -24.90695 | -49.76008 | 14655 ft | 253 kts | 141° |
| 2026-04-21 00:12 | -24.92087 | -49.74818 | 14653 ft | 253 kts | 142° |
| 2026-04-21 00:12 | -24.93477 | -49.73626 | 14657 ft | 253 kts | 142° |
| 2026-04-21 00:12 | -24.94866 | -49.72438 | 14655 ft | 253 kts | 142° |
| 2026-04-21 00:13 | -24.96252 | -49.71248 | 14652 ft | 252 kts | 142° |
| 2026-04-21 00:13 | -24.97638 | -49.70061 | 14651 ft | 252 kts | 141° |
| 2026-04-21 00:13 | -24.99021 | -49.68874 | 14652 ft | 252 kts | 142° |
| 2026-04-21 00:13 | -25.00404 | -49.67686 | 14651 ft | 252 kts | 142° |
| 2026-04-21 00:14 | -25.01787 | -49.66504 | 14649 ft | 251 kts | 141° |
| 2026-04-21 00:14 | -25.03166 | -49.65318 | 14652 ft | 251 kts | 141° |
| 2026-04-21 00:14 | -25.04541 | -49.64128 | 14652 ft | 251 kts | 141° |
| 2026-04-21 00:14 | -25.05923 | -49.62945 | 14654 ft | 252 kts | 142° |
| 2026-04-21 00:15 | -25.07304 | -49.61759 | 14655 ft | 252 kts | 142° |
| 2026-04-21 00:15 | -25.08687 | -49.60570 | 14656 ft | 252 kts | 142° |
| 2026-04-21 00:15 | -25.10079 | -49.59374 | 14498 ft | 259 kts | 142° |
| 2026-04-21 00:15 | -25.11490 | -49.58167 | 14165 ft | 260 kts | 142° |
| 2026-04-21 00:16 | -25.12922 | -49.56943 | 13818 ft | 261 kts | 142° |
| 2026-04-21 00:16 | -25.14362 | -49.55721 | 13436 ft | 261 kts | 142° |
| 2026-04-21 00:16 | -25.15800 | -49.54495 | 13060 ft | 261 kts | 142° |
| 2026-04-21 00:16 | -25.17232 | -49.53265 | 12685 ft | 261 kts | 141° |
| 2026-04-21 00:17 | -25.18655 | -49.52036 | 12319 ft | 259 kts | 141° |
| 2026-04-21 00:17 | -25.20057 | -49.50823 | 11972 ft | 254 kts | 141° |
| 2026-04-21 00:17 | -25.21436 | -49.49631 | 11619 ft | 250 kts | 141° |
| 2026-04-21 00:17 | -25.22794 | -49.48459 | 11280 ft | 246 kts | 141° |
| 2026-04-21 00:18 | -25.24102 | -49.47335 | 10953 ft | 226 kts | 141° |
| 2026-04-21 00:18 | -25.25286 | -49.46318 | 10653 ft | 206 kts | 141° |
| 2026-04-21 00:18 | -25.26376 | -49.45372 | 10388 ft | 195 kts | 141° |
| 2026-04-21 00:18 | -25.27452 | -49.44434 | 10134 ft | 198 kts | 141° |
| 2026-04-21 00:19 | -25.28541 | -49.43487 | 9855 ft | 200 kts | 141° |
| 2026-04-21 00:19 | -25.29644 | -49.42535 | 9552 ft | 202 kts | 141° |
| 2026-04-21 00:19 | -25.30756 | -49.41577 | 9256 ft | 201 kts | 141° |
| 2026-04-21 00:19 | -25.31827 | -49.40653 | 8998 ft | 190 kts | 141° |
| 2026-04-21 00:20 | -25.32849 | -49.39770 | 8733 ft | 183 kts | 141° |
| 2026-04-21 00:20 | -25.33825 | -49.38913 | 8478 ft | 176 kts | 139° |
| 2026-04-21 00:20 | -25.34705 | -49.37983 | 8232 ft | 176 kts | 134° |
| 2026-04-21 00:20 | -25.35544 | -49.37007 | 7989 ft | 173 kts | 133° |
| 2026-04-21 00:21 | -25.36369 | -49.36036 | 7745 ft | 173 kts | 133° |
| 2026-04-21 00:21 | -25.37192 | -49.35074 | 7507 ft | 173 kts | 134° |
| 2026-04-21 00:21 | -25.38036 | -49.34111 | 7264 ft | 174 kts | 134° |
| 2026-04-21 00:21 | -25.38875 | -49.33168 | 7019 ft | 171 kts | 134° |
| 2026-04-21 00:22 | -25.39717 | -49.32228 | 6781 ft | 173 kts | 135° |
| 2026-04-21 00:22 | -25.40560 | -49.31278 | 6538 ft | 172 kts | 134° |
| 2026-04-21 00:22 | -25.41398 | -49.30343 | 6266 ft | 170 kts | 135° |
| 2026-04-21 00:22 | -25.42237 | -49.29413 | 6010 ft | 171 kts | 135° |
| 2026-04-21 00:23 | -25.43067 | -49.28488 | 5759 ft | 168 kts | 135° |
| 2026-04-21 00:23 | -25.43884 | -49.27570 | 5505 ft | 167 kts | 134° |
| 2026-04-21 00:23 | -25.44699 | -49.26657 | 5261 ft | 165 kts | 135° |
| 2026-04-21 00:23 | -25.45481 | -49.25780 | 5021 ft | 158 kts | 135° |
| 2026-04-21 00:24 | -25.46213 | -49.24961 | 4883 ft | 137 kts | 134° |
| 2026-04-21 00:24 | -25.46842 | -49.24264 | 4809 ft | 125 kts | 134° |
| 2026-04-21 00:24 | -25.47438 | -49.23609 | 4770 ft | 116 kts | 135° |
| 2026-04-21 00:24 | -25.47995 | -49.23003 | 4693 ft | 112 kts | 130° |
| 2026-04-21 00:25 | -25.48534 | -49.22337 | 4472 ft | 117 kts | 131° |
| 2026-04-21 00:25 | -25.49115 | -49.21679 | 4223 ft | 122 kts | 133° |
| 2026-04-21 00:25 | -25.49728 | -49.21012 | 3948 ft | 125 kts | 133° |
| 2026-04-21 00:25 | -25.50341 | -49.20339 | 3692 ft | 122 kts | 133° |
| 2026-04-21 00:26 | -25.50951 | -49.19675 | 3420 ft | 124 kts | 134° |
| 2026-04-21 00:26 | -25.51556 | -49.19014 | 3236 ft | 118 kts | 133° |
| 2026-04-21 00:26 | -25.52122 | -49.18379 | 3063 ft | 111 kts | 134° |
| 2026-04-21 00:26 | -25.52618 | -49.17821 | 2984 ft | 83 kts | 137° |
| 2026-04-21 00:27 | -25.52825 | -49.17601 | 2984 ft | 30 kts | 135° |
| 2026-04-21 00:27 | -25.52949 | -49.17463 | 2988 ft | 21 kts | 134° |
| 2026-04-21 00:27 | -25.53032 | -49.17369 | 2989 ft | 15 kts | 135° |
| 2026-04-21 00:27 | -25.53099 | -49.17295 | 2989 ft | 14 kts | 135° |
| 2026-04-21 00:28 | -25.53170 | -49.17308 | 2990 ft | 13 kts | 226° |
| 2026-04-21 00:28 | -25.53188 | -49.17328 | 2990 ft | 6 kts | 225° |
| 2026-04-21 00:28 | -25.53202 | -49.17344 | 2990 ft | 0 kts | 225° |
| 2026-04-21 00:28 | -25.53204 | -49.17345 | 2990 ft | 2 kts | 225° |
| 2026-04-21 00:29 | -25.53214 | -49.17376 | 2989 ft | 7 kts | 277° |
| 2026-04-21 00:29 | -25.53195 | -49.17412 | 2989 ft | 5 kts | 310° |
| 2026-04-21 00:29 | -25.53159 | -49.17451 | 2989 ft | 9 kts | 318° |
| 2026-04-21 00:29 | -25.53165 | -49.17493 | 2989 ft | 6 kts | 226° |
| 2026-04-21 00:30 | -25.53181 | -49.17511 | 2990 ft | 4 kts | 225° |
| 2026-04-21 00:30 | -25.53188 | -49.17518 | 2990 ft | 0 kts | 223° |